sensor_id;sensor_type;location;lat;lon;timestamp;pressure;altitude;pressure_sealevel;temperature
71163;BMP280;58858;50.948;6.566;2022-09-01T00:10:03;101112.81;;;14.17
71163;BMP280;58858;50.948;6.566;2022-09-01T00:20:05;101122.38;;;13.92
71163;BMP280;58858;50.948;6.566;2022-09-01T00:30:07;101112.88;;;13.86
71163;BMP280;58858;50.948;6.566;2022-09-01T00:40:13;101103.34;;;13.80
71163;BMP280;58858;50.948;6.566;2022-09-01T00:50:17;101100.44;;;13.70
71163;BMP280;58858;50.948;6.566;2022-09-01T01:00:22;101086.19;;;13.88
71163;BMP280;58858;50.948;6.566;2022-09-01T01:10:24;101064.56;;;13.85
71163;BMP280;58858;50.948;6.566;2022-09-01T01:20:27;101065.06;;;13.91
71163;BMP280;58858;50.948;6.566;2022-09-01T01:30:56;101076.13;;;13.83
71163;BMP280;58858;50.948;6.566;2022-09-01T01:40:59;101061.47;;;13.81
71163;BMP280;58858;50.948;6.566;2022-09-01T01:51:02;101082.34;;;13.60
71163;BMP280;58858;50.948;6.566;2022-09-01T02:01:05;101076.53;;;13.49
71163;BMP280;58858;50.948;6.566;2022-09-01T02:11:09;101082.38;;;13.22
71163;BMP280;58858;50.948;6.566;2022-09-01T02:21:13;101077.81;;;13.09
71163;BMP280;58858;50.948;6.566;2022-09-01T02:31:18;101085.75;;;12.98
71163;BMP280;58858;50.948;6.566;2022-09-01T02:41:21;101061.41;;;12.95
71163;BMP280;58858;50.948;6.566;2022-09-01T02:51:24;101058.81;;;12.97
71163;BMP280;58858;50.948;6.566;2022-09-01T03:01:29;101047.97;;;12.99
71163;BMP280;58858;50.948;6.566;2022-09-01T03:11:33;101066.72;;;12.86
71163;BMP280;58858;50.948;6.566;2022-09-01T03:21:39;101045.44;;;12.86
71163;BMP280;58858;50.948;6.566;2022-09-01T03:31:41;101063.03;;;12.98
71163;BMP280;58858;50.948;6.566;2022-09-01T03:41:42;101051.28;;;12.97
71163;BMP280;58858;50.948;6.566;2022-09-01T03:51:45;101043.03;;;12.97
71163;BMP280;58858;50.948;6.566;2022-09-01T04:01:46;101056.47;;;12.79
71163;BMP280;58858;50.948;6.566;2022-09-01T04:11:49;101059.84;;;12.48
71163;BMP280;58858;50.948;6.566;2022-09-01T04:21:57;101052.50;;;12.43
71163;BMP280;58858;50.948;6.566;2022-09-01T04:32:06;101047.63;;;12.27
71163;BMP280;58858;50.948;6.566;2022-09-01T04:42:09;101044.50;;;12.16
71163;BMP280;58858;50.948;6.566;2022-09-01T04:52:11;101084.00;;;11.84
71163;BMP280;58858;50.948;6.566;2022-09-01T05:02:13;101073.75;;;11.77
71163;BMP280;58858;50.948;6.566;2022-09-01T05:12:14;101063.31;;;11.83
71163;BMP280;58858;50.948;6.566;2022-09-01T05:22:17;101086.41;;;11.87
71163;BMP280;58858;50.948;6.566;2022-09-01T05:32:29;101080.94;;;11.87
71163;BMP280;58858;50.948;6.566;2022-09-01T05:42:31;101070.69;;;12.10
71163;BMP280;58858;50.948;6.566;2022-09-01T05:52:35;101074.72;;;12.31
71163;BMP280;58858;50.948;6.566;2022-09-01T06:02:37;101055.94;;;12.73
71163;BMP280;58858;50.948;6.566;2022-09-01T06:12:40;101040.28;;;12.90
71163;BMP280;58858;50.948;6.566;2022-09-01T06:22:41;101048.75;;;13.30
71163;BMP280;58858;50.948;6.566;2022-09-01T06:32:43;101046.28;;;13.97
71163;BMP280;58858;50.948;6.566;2022-09-01T06:42:46;101008.63;;;15.50
71163;BMP280;58858;50.948;6.566;2022-09-01T06:52:48;101002.94;;;16.92
71163;BMP280;58858;50.948;6.566;2022-09-01T07:02:55;100971.53;;;17.95
71163;BMP280;58858;50.948;6.566;2022-09-01T07:13:33;100978.09;;;18.61
71163;BMP280;58858;50.948;6.566;2022-09-01T07:23:36;101004.44;;;19.14
71163;BMP280;58858;50.948;6.566;2022-09-01T07:33:39;100996.69;;;19.67
71163;BMP280;58858;50.948;6.566;2022-09-01T07:43:40;101008.19;;;20.18
71163;BMP280;58858;50.948;6.566;2022-09-01T07:54:16;101067.63;;;20.69
71163;BMP280;58858;50.948;6.566;2022-09-01T08:04:17;101106.06;;;21.30
71163;BMP280;58858;50.948;6.566;2022-09-01T08:14:22;101077.22;;;21.50
71163;BMP280;58858;50.948;6.566;2022-09-01T08:24:24;101049.81;;;21.84
71163;BMP280;58858;50.948;6.566;2022-09-01T08:34:25;100982.13;;;21.97
71163;BMP280;58858;50.948;6.566;2022-09-01T09:25:11;100985.09;;;23.55
71163;BMP280;58858;50.948;6.566;2022-09-01T09:35:28;100885.38;;;24.26
71163;BMP280;58858;50.948;6.566;2022-09-01T09:55:35;100988.69;;;24.03
71163;BMP280;58858;50.948;6.566;2022-09-01T10:05:44;101089.31;;;25.45
71163;BMP280;58858;50.948;6.566;2022-09-01T10:15:51;101067.06;;;24.65
71163;BMP280;58858;50.948;6.566;2022-09-01T10:25:57;100895.22;;;25.14
71163;BMP280;58858;50.948;6.566;2022-09-01T10:36:00;100953.63;;;25.19
71163;BMP280;58858;50.948;6.566;2022-09-01T10:56:14;100914.69;;;25.46
71163;BMP280;58858;50.948;6.566;2022-09-01T11:06:44;100873.38;;;25.67
71163;BMP280;58858;50.948;6.566;2022-09-01T11:17:13;100832.53;;;24.52
71163;BMP280;58858;50.948;6.566;2022-09-01T11:37:54;100893.38;;;26.17
71163;BMP280;58858;50.948;6.566;2022-09-01T11:48:07;100898.59;;;24.40
71163;BMP280;58858;50.948;6.566;2022-09-01T11:58:27;100980.25;;;25.18
71163;BMP280;58858;50.948;6.566;2022-09-01T12:08:35;100915.44;;;26.05
71163;BMP280;58858;50.948;6.566;2022-09-01T12:18:44;100866.38;;;24.75
71163;BMP280;58858;50.948;6.566;2022-09-01T12:28:47;100974.09;;;25.05
71163;BMP280;58858;50.948;6.566;2022-09-01T12:38:51;100895.22;;;24.61
71163;BMP280;58858;50.948;6.566;2022-09-01T12:48:52;100948.44;;;24.27
71163;BMP280;58858;50.948;6.566;2022-09-01T12:59:12;100782.56;;;25.59
71163;BMP280;58858;50.948;6.566;2022-09-01T13:09:14;100923.00;;;24.38
71163;BMP280;58858;50.948;6.566;2022-09-01T13:19:15;100802.19;;;24.64
71163;BMP280;58858;50.948;6.566;2022-09-01T13:29:16;100794.09;;;25.88
71163;BMP280;58858;50.948;6.566;2022-09-01T13:39:18;100777.53;;;24.97
71163;BMP280;58858;50.948;6.566;2022-09-01T13:49:19;100919.56;;;24.22
71163;BMP280;58858;50.948;6.566;2022-09-01T13:59:20;100792.63;;;24.01
71163;BMP280;58858;50.948;6.566;2022-09-01T14:09:21;100867.72;;;23.89
71163;BMP280;58858;50.948;6.566;2022-09-01T14:19:23;100919.22;;;23.67
71163;BMP280;58858;50.948;6.566;2022-09-01T14:29:24;100902.31;;;23.18
71163;BMP280;58858;50.948;6.566;2022-09-01T14:39:25;100841.78;;;23.09
71163;BMP280;58858;50.948;6.566;2022-09-01T14:49:26;100816.78;;;23.60
71163;BMP280;58858;50.948;6.566;2022-09-01T14:59:32;100709.66;;;24.09
71163;BMP280;58858;50.948;6.566;2022-09-01T15:09:34;100802.91;;;23.47
71163;BMP280;58858;50.948;6.566;2022-09-01T15:19:35;100749.47;;;23.57
71163;BMP280;58858;50.948;6.566;2022-09-01T15:29:37;100740.00;;;23.97
71163;BMP280;58858;50.948;6.566;2022-09-01T15:39:44;100671.78;;;23.55
71163;BMP280;58858;50.948;6.566;2022-09-01T15:49:45;100652.28;;;23.40
71163;BMP280;58858;50.948;6.566;2022-09-01T15:59:46;100713.09;;;23.07
71163;BMP280;58858;50.948;6.566;2022-09-01T16:09:47;100758.63;;;22.95
71163;BMP280;58858;50.948;6.566;2022-09-01T16:20:11;100755.63;;;23.21
71163;BMP280;58858;50.948;6.566;2022-09-01T16:30:24;100699.38;;;23.13
71163;BMP280;58858;50.948;6.566;2022-09-01T17:11:26;100661.97;;;22.43
71163;BMP280;58858;50.948;6.566;2022-09-01T17:21:42;100652.69;;;22.23
71163;BMP280;58858;50.948;6.566;2022-09-01T17:52:33;100854.25;;;20.88
71163;BMP280;58858;50.948;6.566;2022-09-01T18:02:58;100868.38;;;20.79
71163;BMP280;58858;50.948;6.566;2022-09-01T18:13:08;100877.41;;;20.42
71163;BMP280;58858;50.948;6.566;2022-09-01T18:23:13;100883.50;;;19.92
71163;BMP280;58858;50.948;6.566;2022-09-01T18:33:28;100870.41;;;19.59
71163;BMP280;58858;50.948;6.566;2022-09-01T18:43:42;100788.75;;;19.30
71163;BMP280;58858;50.948;6.566;2022-09-01T19:24:41;100852.44;;;17.77
71163;BMP280;58858;50.948;6.566;2022-09-01T19:34:57;100830.06;;;17.43
71163;BMP280;58858;50.948;6.566;2022-09-01T19:45:12;100794.38;;;17.38
71163;BMP280;58858;50.948;6.566;2022-09-01T20:05:59;100826.06;;;16.57
71163;BMP280;58858;50.948;6.566;2022-09-01T20:36:59;100825.81;;;15.79
71163;BMP280;58858;50.948;6.566;2022-09-01T20:47:05;100823.47;;;15.57
71163;BMP280;58858;50.948;6.566;2022-09-01T21:07:20;100794.81;;;15.53
71163;BMP280;58858;50.948;6.566;2022-09-01T21:17:53;100775.75;;;15.48
71163;BMP280;58858;50.948;6.566;2022-09-01T21:27:59;100750.19;;;15.47
71163;BMP280;58858;50.948;6.566;2022-09-01T21:38:00;100766.88;;;15.40
71163;BMP280;58858;50.948;6.566;2022-09-01T21:48:02;100723.56;;;15.33
71163;BMP280;58858;50.948;6.566;2022-09-01T21:58:03;100669.38;;;15.47
71163;BMP280;58858;50.948;6.566;2022-09-01T22:08:04;100724.31;;;15.33
71163;BMP280;58858;50.948;6.566;2022-09-01T22:18:05;100767.03;;;15.33
71163;BMP280;58858;50.948;6.566;2022-09-01T22:28:07;100815.16;;;14.95
71163;BMP280;58858;50.948;6.566;2022-09-01T22:38:08;100788.41;;;14.62
71163;BMP280;58858;50.948;6.566;2022-09-01T22:48:10;100779.66;;;14.56
71163;BMP280;58858;50.948;6.566;2022-09-01T22:58:12;100700.63;;;14.68
71163;BMP280;58858;50.948;6.566;2022-09-01T23:08:15;100738.31;;;14.91
71163;BMP280;58858;50.948;6.566;2022-09-01T23:18:16;100749.19;;;14.89
71163;BMP280;58858;50.948;6.566;2022-09-01T23:28:18;100641.59;;;14.98
71163;BMP280;58858;50.948;6.566;2022-09-01T23:38:20;100600.78;;;15.15
71163;BMP280;58858;50.948;6.566;2022-09-01T23:48:22;100721.78;;;15.10
71163;BMP280;58858;50.948;6.566;2022-09-01T23:58:25;100674.56;;;14.96
